sensor_id;sensor_type;location;lat;lon;timestamp;P1;durP1;ratioP1;P2;durP2;ratioP2
73869;SDS011;64924;42.140;24.762;2024-02-26T00:02:16;51.50;;;32.75;;
73869;SDS011;64924;42.140;24.762;2024-02-26T00:04:42;49.42;;;31.30;;
73869;SDS011;64924;42.140;24.762;2024-02-26T00:07:07;49.60;;;32.10;;
73869;SDS011;64924;42.140;24.762;2024-02-26T00:09:33;49.47;;;31.23;;
73869;SDS011;64924;42.140;24.762;2024-02-26T00:12:04;52.75;;;32.35;;
73869;SDS011;64924;42.140;24.762;2024-02-26T00:14:30;50.58;;;30.90;;
73869;SDS011;64924;42.140;24.762;2024-02-26T00:16:56;55.00;;;33.15;;
73869;SDS011;64924;42.140;24.762;2024-02-26T00:19:22;57.03;;;32.53;;
73869;SDS011;64924;42.140;24.762;2024-02-26T00:21:47;46.53;;;31.23;;
73869;SDS011;64924;42.140;24.762;2024-02-26T00:24:13;56.13;;;31.48;;
73869;SDS011;64924;42.140;24.762;2024-02-26T00:26:38;43.70;;;29.52;;
73869;SDS011;64924;42.140;24.762;2024-02-26T00:29:04;44.65;;;29.17;;
73869;SDS011;64924;42.140;24.762;2024-02-26T00:31:30;47.00;;;28.70;;
73869;SDS011;64924;42.140;24.762;2024-02-26T00:33:55;39.28;;;25.85;;
73869;SDS011;64924;42.140;24.762;2024-02-26T00:36:21;45.10;;;29.20;;
73869;SDS011;64924;42.140;24.762;2024-02-26T00:38:47;50.63;;;32.08;;
73869;SDS011;64924;42.140;24.762;2024-02-26T00:41:16;55.08;;;31.45;;
73869;SDS011;64924;42.140;24.762;2024-02-26T00:43:42;55.38;;;30.60;;
73869;SDS011;64924;42.140;24.762;2024-02-26T00:46:07;49.22;;;31.77;;
73869;SDS011;64924;42.140;24.762;2024-02-26T00:48:33;50.00;;;31.02;;
73869;SDS011;64924;42.140;24.762;2024-02-26T00:50:59;46.90;;;30.17;;
73869;SDS011;64924;42.140;24.762;2024-02-26T00:53:24;44.42;;;28.48;;
73869;SDS011;64924;42.140;24.762;2024-02-26T00:55:50;46.10;;;30.10;;
73869;SDS011;64924;42.140;24.762;2024-02-26T00:58:16;52.28;;;33.80;;
73869;SDS011;64924;42.140;24.762;2024-02-26T01:00:41;50.75;;;30.80;;
73869;SDS011;64924;42.140;24.762;2024-02-26T01:03:07;45.08;;;27.25;;
73869;SDS011;64924;42.140;24.762;2024-02-26T01:05:33;41.63;;;26.17;;
73869;SDS011;64924;42.140;24.762;2024-02-26T01:07:58;43.53;;;25.90;;
73869;SDS011;64924;42.140;24.762;2024-02-26T01:10:24;38.30;;;22.83;;
73869;SDS011;64924;42.140;24.762;2024-02-26T01:12:49;32.92;;;23.33;;
73869;SDS011;64924;42.140;24.762;2024-02-26T01:15:15;36.40;;;23.95;;
73869;SDS011;64924;42.140;24.762;2024-02-26T01:17:41;39.83;;;24.52;;
73869;SDS011;64924;42.140;24.762;2024-02-26T01:20:06;39.10;;;26.20;;
73869;SDS011;64924;42.140;24.762;2024-02-26T01:22:34;39.33;;;25.63;;
73869;SDS011;64924;42.140;24.762;2024-02-26T01:24:59;39.65;;;25.20;;
73869;SDS011;64924;42.140;24.762;2024-02-26T01:27:25;44.20;;;27.13;;
73869;SDS011;64924;42.140;24.762;2024-02-26T01:29:52;41.80;;;27.75;;
73869;SDS011;64924;42.140;24.762;2024-02-26T01:32:18;44.53;;;25.58;;
73869;SDS011;64924;42.140;24.762;2024-02-26T01:34:44;43.97;;;27.83;;
73869;SDS011;64924;42.140;24.762;2024-02-26T01:37:10;43.95;;;26.73;;
73869;SDS011;64924;42.140;24.762;2024-02-26T01:39:35;41.45;;;27.85;;
73869;SDS011;64924;42.140;24.762;2024-02-26T01:42:01;41.22;;;27.67;;
73869;SDS011;64924;42.140;24.762;2024-02-26T01:44:26;42.75;;;27.25;;
73869;SDS011;64924;42.140;24.762;2024-02-26T01:46:52;41.28;;;26.23;;
73869;SDS011;64924;42.140;24.762;2024-02-26T01:49:18;39.67;;;26.15;;
73869;SDS011;64924;42.140;24.762;2024-02-26T01:51:44;38.63;;;27.30;;
73869;SDS011;64924;42.140;24.762;2024-02-26T01:54:11;37.92;;;25.33;;
73869;SDS011;64924;42.140;24.762;2024-02-26T01:56:37;36.03;;;25.35;;
73869;SDS011;64924;42.140;24.762;2024-02-26T01:59:05;35.30;;;24.02;;
73869;SDS011;64924;42.140;24.762;2024-02-26T02:01:33;35.42;;;25.33;;
73869;SDS011;64924;42.140;24.762;2024-02-26T02:04:00;43.85;;;26.30;;
73869;SDS011;64924;42.140;24.762;2024-02-26T02:06:26;36.80;;;26.20;;
73869;SDS011;64924;42.140;24.762;2024-02-26T02:08:55;37.38;;;25.13;;
73869;SDS011;64924;42.140;24.762;2024-02-26T02:11:20;37.60;;;25.77;;
73869;SDS011;64924;42.140;24.762;2024-02-26T02:13:46;42.97;;;25.63;;
73869;SDS011;64924;42.140;24.762;2024-02-26T02:16:12;46.05;;;26.80;;
73869;SDS011;64924;42.140;24.762;2024-02-26T02:18:38;35.38;;;24.30;;
73869;SDS011;64924;42.140;24.762;2024-02-26T02:21:03;38.47;;;26.50;;
73869;SDS011;64924;42.140;24.762;2024-02-26T02:23:29;40.13;;;24.42;;
73869;SDS011;64924;42.140;24.762;2024-02-26T02:25:54;41.05;;;25.88;;
73869;SDS011;64924;42.140;24.762;2024-02-26T02:28:22;35.78;;;23.65;;
73869;SDS011;64924;42.140;24.762;2024-02-26T02:30:50;41.03;;;25.83;;
73869;SDS011;64924;42.140;24.762;2024-02-26T02:33:16;38.25;;;24.88;;
73869;SDS011;64924;42.140;24.762;2024-02-26T02:35:41;40.83;;;26.00;;
73869;SDS011;64924;42.140;24.762;2024-02-26T02:38:07;38.78;;;24.17;;
73869;SDS011;64924;42.140;24.762;2024-02-26T02:40:32;37.05;;;23.58;;
73869;SDS011;64924;42.140;24.762;2024-02-26T02:42:58;35.30;;;22.58;;
73869;SDS011;64924;42.140;24.762;2024-02-26T02:45:25;40.92;;;23.20;;
73869;SDS011;64924;42.140;24.762;2024-02-26T02:47:50;38.10;;;24.15;;
73869;SDS011;64924;42.140;24.762;2024-02-26T02:50:16;37.40;;;22.52;;
73869;SDS011;64924;42.140;24.762;2024-02-26T02:52:42;39.42;;;24.30;;
73869;SDS011;64924;42.140;24.762;2024-02-26T02:55:07;34.42;;;22.17;;
73869;SDS011;64924;42.140;24.762;2024-02-26T02:57:33;36.58;;;22.35;;
73869;SDS011;64924;42.140;24.762;2024-02-26T02:59:59;36.85;;;22.33;;
73869;SDS011;64924;42.140;24.762;2024-02-26T03:02:24;35.42;;;23.30;;
73869;SDS011;64924;42.140;24.762;2024-02-26T03:04:50;35.28;;;23.35;;
73869;SDS011;64924;42.140;24.762;2024-02-26T03:07:15;37.17;;;24.80;;
73869;SDS011;64924;42.140;24.762;2024-02-26T03:09:41;43.35;;;26.35;;
73869;SDS011;64924;42.140;24.762;2024-02-26T03:12:07;36.80;;;26.08;;
73869;SDS011;64924;42.140;24.762;2024-02-26T03:14:32;48.00;;;27.92;;
73869;SDS011;64924;42.140;24.762;2024-02-26T03:16:58;40.28;;;28.98;;
73869;SDS011;64924;42.140;24.762;2024-02-26T03:19:23;48.05;;;31.45;;
73869;SDS011;64924;42.140;24.762;2024-02-26T03:21:49;50.50;;;32.88;;
73869;SDS011;64924;42.140;24.762;2024-02-26T03:24:14;51.55;;;34.08;;
73869;SDS011;64924;42.140;24.762;2024-02-26T03:26:40;52.90;;;34.45;;
73869;SDS011;64924;42.140;24.762;2024-02-26T03:29:05;50.47;;;34.72;;
73869;SDS011;64924;42.140;24.762;2024-02-26T03:31:31;55.97;;;35.17;;
73869;SDS011;64924;42.140;24.762;2024-02-26T03:33:57;53.70;;;31.67;;
73869;SDS011;64924;42.140;24.762;2024-02-26T03:36:22;50.20;;;33.47;;
73869;SDS011;64924;42.140;24.762;2024-02-26T03:38:48;52.10;;;34.10;;
73869;SDS011;64924;42.140;24.762;2024-02-26T03:41:13;49.25;;;34.00;;
73869;SDS011;64924;42.140;24.762;2024-02-26T03:43:39;51.70;;;32.72;;
73869;SDS011;64924;42.140;24.762;2024-02-26T03:46:08;50.30;;;34.05;;
73869;SDS011;64924;42.140;24.762;2024-02-26T03:48:38;56.15;;;35.47;;
73869;SDS011;64924;42.140;24.762;2024-02-26T03:51:05;54.45;;;34.13;;
73869;SDS011;64924;42.140;24.762;2024-02-26T03:53:31;51.58;;;32.80;;
73869;SDS011;64924;42.140;24.762;2024-02-26T03:55:56;48.47;;;32.17;;
73869;SDS011;64924;42.140;24.762;2024-02-26T03:58:22;47.20;;;29.45;;
73869;SDS011;64924;42.140;24.762;2024-02-26T04:00:47;52.55;;;33.55;;
73869;SDS011;64924;42.140;24.762;2024-02-26T04:03:13;48.17;;;29.92;;
73869;SDS011;64924;42.140;24.762;2024-02-26T04:05:39;47.20;;;31.38;;
73869;SDS011;64924;42.140;24.762;2024-02-26T04:08:05;46.47;;;30.55;;
73869;SDS011;64924;42.140;24.762;2024-02-26T04:10:32;47.70;;;30.80;;
73869;SDS011;64924;42.140;24.762;2024-02-26T04:12:59;52.15;;;30.58;;
73869;SDS011;64924;42.140;24.762;2024-02-26T04:15:25;40.92;;;27.25;;
73869;SDS011;64924;42.140;24.762;2024-02-26T04:17:51;46.35;;;24.35;;
73869;SDS011;64924;42.140;24.762;2024-02-26T04:20:16;36.10;;;23.67;;
73869;SDS011;64924;42.140;24.762;2024-02-26T04:22:42;35.10;;;22.65;;
73869;SDS011;64924;42.140;24.762;2024-02-26T04:25:07;32.53;;;20.42;;
73869;SDS011;64924;42.140;24.762;2024-02-26T04:27:33;33.60;;;21.38;;
73869;SDS011;64924;42.140;24.762;2024-02-26T04:29:59;34.78;;;20.52;;
73869;SDS011;64924;42.140;24.762;2024-02-26T04:32:24;32.88;;;20.85;;
73869;SDS011;64924;42.140;24.762;2024-02-26T04:34:50;33.80;;;20.30;;
73869;SDS011;64924;42.140;24.762;2024-02-26T04:37:15;30.42;;;18.25;;
73869;SDS011;64924;42.140;24.762;2024-02-26T04:39:41;28.50;;;18.33;;
73869;SDS011;64924;42.140;24.762;2024-02-26T04:42:06;29.15;;;17.95;;
73869;SDS011;64924;42.140;24.762;2024-02-26T04:44:32;30.55;;;18.05;;
73869;SDS011;64924;42.140;24.762;2024-02-26T04:46:58;26.98;;;17.60;;
73869;SDS011;64924;42.140;24.762;2024-02-26T04:49:23;30.25;;;17.13;;
73869;SDS011;64924;42.140;24.762;2024-02-26T04:51:49;27.23;;;17.13;;
73869;SDS011;64924;42.140;24.762;2024-02-26T04:54:14;29.92;;;15.98;;
73869;SDS011;64924;42.140;24.762;2024-02-26T04:56:40;29.48;;;17.00;;
73869;SDS011;64924;42.140;24.762;2024-02-26T04:59:05;26.30;;;16.38;;
73869;SDS011;64924;42.140;24.762;2024-02-26T05:01:31;23.52;;;16.52;;
73869;SDS011;64924;42.140;24.762;2024-02-26T05:03:56;26.30;;;15.73;;
73869;SDS011;64924;42.140;24.762;2024-02-26T05:06:22;24.63;;;13.88;;
73869;SDS011;64924;42.140;24.762;2024-02-26T05:08:47;26.48;;;15.43;;
73869;SDS011;64924;42.140;24.762;2024-02-26T05:11:13;24.73;;;14.52;;
73869;SDS011;64924;42.140;24.762;2024-02-26T05:13:38;26.65;;;14.32;;
73869;SDS011;64924;42.140;24.762;2024-02-26T05:16:04;23.20;;;14.13;;
73869;SDS011;64924;42.140;24.762;2024-02-26T05:18:30;28.42;;;15.50;;
73869;SDS011;64924;42.140;24.762;2024-02-26T05:20:55;24.92;;;14.25;;
73869;SDS011;64924;42.140;24.762;2024-02-26T05:23:21;29.92;;;14.63;;
73869;SDS011;64924;42.140;24.762;2024-02-26T05:25:46;20.42;;;13.23;;
73869;SDS011;64924;42.140;24.762;2024-02-26T05:28:13;19.98;;;11.95;;
73869;SDS011;64924;42.140;24.762;2024-02-26T05:30:40;19.45;;;12.75;;
73869;SDS011;64924;42.140;24.762;2024-02-26T05:33:07;20.73;;;13.18;;
73869;SDS011;64924;42.140;24.762;2024-02-26T05:35:32;23.38;;;14.00;;
73869;SDS011;64924;42.140;24.762;2024-02-26T05:37:58;20.85;;;13.13;;
73869;SDS011;64924;42.140;24.762;2024-02-26T05:40:23;22.45;;;13.88;;
73869;SDS011;64924;42.140;24.762;2024-02-26T05:42:49;21.98;;;14.73;;
73869;SDS011;64924;42.140;24.762;2024-02-26T05:45:14;27.15;;;15.25;;
73869;SDS011;64924;42.140;24.762;2024-02-26T05:47:40;27.17;;;14.55;;
73869;SDS011;64924;42.140;24.762;2024-02-26T05:50:10;23.60;;;14.50;;
73869;SDS011;64924;42.140;24.762;2024-02-26T05:52:38;26.45;;;16.70;;
73869;SDS011;64924;42.140;24.762;2024-02-26T05:55:04;25.88;;;14.70;;
73869;SDS011;64924;42.140;24.762;2024-02-26T05:57:30;24.65;;;15.07;;
73869;SDS011;64924;42.140;24.762;2024-02-26T05:59:56;28.30;;;14.25;;
73869;SDS011;64924;42.140;24.762;2024-02-26T06:02:22;21.83;;;13.82;;
73869;SDS011;64924;42.140;24.762;2024-02-26T06:04:47;19.27;;;13.65;;
73869;SDS011;64924;42.140;24.762;2024-02-26T06:07:13;24.60;;;13.45;;
73869;SDS011;64924;42.140;24.762;2024-02-26T06:09:38;24.63;;;12.98;;
73869;SDS011;64924;42.140;24.762;2024-02-26T06:12:04;25.27;;;13.27;;
73869;SDS011;64924;42.140;24.762;2024-02-26T06:14:30;22.40;;;12.85;;
73869;SDS011;64924;42.140;24.762;2024-02-26T06:16:56;21.75;;;12.90;;
73869;SDS011;64924;42.140;24.762;2024-02-26T06:19:21;27.58;;;14.10;;
73869;SDS011;64924;42.140;24.762;2024-02-26T06:21:47;24.45;;;13.90;;
73869;SDS011;64924;42.140;24.762;2024-02-26T06:24:12;26.02;;;14.95;;
73869;SDS011;64924;42.140;24.762;2024-02-26T06:26:38;22.67;;;13.32;;
73869;SDS011;64924;42.140;24.762;2024-02-26T06:29:03;23.70;;;14.63;;
73869;SDS011;64924;42.140;24.762;2024-02-26T06:31:29;20.60;;;15.60;;
73869;SDS011;64924;42.140;24.762;2024-02-26T06:33:54;25.55;;;15.00;;
73869;SDS011;64924;42.140;24.762;2024-02-26T06:36:20;25.98;;;15.52;;
73869;SDS011;64924;42.140;24.762;2024-02-26T06:38:46;24.30;;;14.45;;
73869;SDS011;64924;42.140;24.762;2024-02-26T06:41:12;33.20;;;16.63;;
73869;SDS011;64924;42.140;24.762;2024-02-26T06:43:37;28.90;;;14.82;;
73869;SDS011;64924;42.140;24.762;2024-02-26T06:46:03;25.17;;;15.85;;
73869;SDS011;64924;42.140;24.762;2024-02-26T06:48:28;24.83;;;16.83;;
73869;SDS011;64924;42.140;24.762;2024-02-26T06:50:54;36.78;;;18.10;;
73869;SDS011;64924;42.140;24.762;2024-02-26T06:53:19;32.20;;;17.98;;
73869;SDS011;64924;42.140;24.762;2024-02-26T06:55:45;28.00;;;17.63;;
73869;SDS011;64924;42.140;24.762;2024-02-26T06:58:10;27.13;;;17.85;;
73869;SDS011;64924;42.140;24.762;2024-02-26T07:00:36;30.40;;;18.13;;
73869;SDS011;64924;42.140;24.762;2024-02-26T07:03:01;27.40;;;17.63;;
73869;SDS011;64924;42.140;24.762;2024-02-26T07:05:27;27.70;;;17.52;;
73869;SDS011;64924;42.140;24.762;2024-02-26T07:07:54;31.60;;;18.15;;
73869;SDS011;64924;42.140;24.762;2024-02-26T07:10:19;29.08;;;18.35;;
73869;SDS011;64924;42.140;24.762;2024-02-26T07:12:46;26.13;;;17.38;;
73869;SDS011;64924;42.140;24.762;2024-02-26T07:15:11;31.10;;;18.02;;
73869;SDS011;64924;42.140;24.762;2024-02-26T07:17:37;34.78;;;19.10;;
73869;SDS011;64924;42.140;24.762;2024-02-26T07:20:04;37.40;;;18.08;;
73869;SDS011;64924;42.140;24.762;2024-02-26T07:22:32;34.00;;;19.65;;
73869;SDS011;64924;42.140;24.762;2024-02-26T07:24:58;33.20;;;18.85;;
73869;SDS011;64924;42.140;24.762;2024-02-26T07:27:23;39.00;;;19.25;;
73869;SDS011;64924;42.140;24.762;2024-02-26T07:29:49;32.22;;;18.88;;
73869;SDS011;64924;42.140;24.762;2024-02-26T07:32:14;33.28;;;21.10;;
73869;SDS011;64924;42.140;24.762;2024-02-26T07:34:40;31.85;;;18.70;;
73869;SDS011;64924;42.140;24.762;2024-02-26T07:37:10;29.45;;;18.58;;
73869;SDS011;64924;42.140;24.762;2024-02-26T07:39:36;34.28;;;20.02;;
73869;SDS011;64924;42.140;24.762;2024-02-26T07:42:02;31.45;;;19.83;;
73869;SDS011;64924;42.140;24.762;2024-02-26T07:44:28;32.05;;;19.85;;
73869;SDS011;64924;42.140;24.762;2024-02-26T07:46:53;33.05;;;20.52;;
73869;SDS011;64924;42.140;24.762;2024-02-26T07:49:19;46.78;;;25.95;;
73869;SDS011;64924;42.140;24.762;2024-02-26T07:51:45;44.78;;;27.02;;
73869;SDS011;64924;42.140;24.762;2024-02-26T07:54:10;42.50;;;24.60;;
73869;SDS011;64924;42.140;24.762;2024-02-26T07:56:36;40.05;;;21.98;;
73869;SDS011;64924;42.140;24.762;2024-02-26T07:59:01;34.42;;;20.00;;
73869;SDS011;64924;42.140;24.762;2024-02-26T08:01:27;41.95;;;21.52;;
73869;SDS011;64924;42.140;24.762;2024-02-26T08:03:53;39.20;;;24.98;;
73869;SDS011;64924;42.140;24.762;2024-02-26T08:06:18;37.00;;;23.35;;
73869;SDS011;64924;42.140;24.762;2024-02-26T08:08:44;42.33;;;25.60;;
73869;SDS011;64924;42.140;24.762;2024-02-26T08:11:09;39.10;;;23.67;;
73869;SDS011;64924;42.140;24.762;2024-02-26T08:13:35;50.08;;;27.05;;
73869;SDS011;64924;42.140;24.762;2024-02-26T08:16:01;68.22;;;30.45;;
73869;SDS011;64924;42.140;24.762;2024-02-26T08:18:26;53.97;;;30.40;;
73869;SDS011;64924;42.140;24.762;2024-02-26T08:20:52;57.45;;;30.27;;
73869;SDS011;64924;42.140;24.762;2024-02-26T08:23:17;50.53;;;32.30;;
73869;SDS011;64924;42.140;24.762;2024-02-26T08:25:43;55.80;;;32.97;;
73869;SDS011;64924;42.140;24.762;2024-02-26T08:28:09;58.97;;;34.95;;
73869;SDS011;64924;42.140;24.762;2024-02-26T08:30:38;50.17;;;29.42;;
73869;SDS011;64924;42.140;24.762;2024-02-26T08:33:03;55.03;;;29.00;;
73869;SDS011;64924;42.140;24.762;2024-02-26T08:35:29;52.78;;;32.70;;
73869;SDS011;64924;42.140;24.762;2024-02-26T08:37:55;41.53;;;24.70;;
73869;SDS011;64924;42.140;24.762;2024-02-26T08:40:20;44.38;;;21.35;;
73869;SDS011;64924;42.140;24.762;2024-02-26T08:42:46;41.97;;;21.00;;
73869;SDS011;64924;42.140;24.762;2024-02-26T08:45:12;43.53;;;22.30;;
73869;SDS011;64924;42.140;24.762;2024-02-26T08:47:37;40.42;;;21.63;;
73869;SDS011;64924;42.140;24.762;2024-02-26T08:50:04;36.58;;;20.55;;
73869;SDS011;64924;42.140;24.762;2024-02-26T08:52:30;43.55;;;21.10;;
73869;SDS011;64924;42.140;24.762;2024-02-26T08:54:55;45.40;;;22.92;;
73869;SDS011;64924;42.140;24.762;2024-02-26T08:57:22;31.70;;;22.88;;
73869;SDS011;64924;42.140;24.762;2024-02-26T08:59:47;40.42;;;23.77;;
73869;SDS011;64924;42.140;24.762;2024-02-26T09:02:13;41.78;;;23.25;;
73869;SDS011;64924;42.140;24.762;2024-02-26T09:04:38;37.08;;;23.88;;
73869;SDS011;64924;42.140;24.762;2024-02-26T09:07:04;40.65;;;23.90;;
73869;SDS011;64924;42.140;24.762;2024-02-26T09:09:29;42.80;;;23.52;;
73869;SDS011;64924;42.140;24.762;2024-02-26T09:11:55;36.38;;;21.60;;
73869;SDS011;64924;42.140;24.762;2024-02-26T09:14:21;37.70;;;24.90;;
73869;SDS011;64924;42.140;24.762;2024-02-26T09:16:46;37.83;;;24.38;;
73869;SDS011;64924;42.140;24.762;2024-02-26T09:19:16;46.20;;;26.38;;
73869;SDS011;64924;42.140;24.762;2024-02-26T09:21:42;40.55;;;24.95;;
73869;SDS011;64924;42.140;24.762;2024-02-26T09:24:09;56.05;;;25.33;;
73869;SDS011;64924;42.140;24.762;2024-02-26T09:26:36;38.22;;;24.35;;
73869;SDS011;64924;42.140;24.762;2024-02-26T09:29:01;47.08;;;24.35;;
73869;SDS011;64924;42.140;24.762;2024-02-26T09:31:27;42.72;;;24.90;;
73869;SDS011;64924;42.140;24.762;2024-02-26T09:33:52;40.17;;;23.85;;
73869;SDS011;64924;42.140;24.762;2024-02-26T09:36:18;43.67;;;25.55;;
73869;SDS011;64924;42.140;24.762;2024-02-26T09:38:43;40.55;;;24.77;;
73869;SDS011;64924;42.140;24.762;2024-02-26T09:41:12;39.72;;;25.58;;
73869;SDS011;64924;42.140;24.762;2024-02-26T09:43:39;37.20;;;23.48;;
73869;SDS011;64924;42.140;24.762;2024-02-26T09:48:35;32.80;;;21.60;;
73869;SDS011;64924;42.140;24.762;2024-02-26T09:51:02;39.88;;;23.90;;
73869;SDS011;64924;42.140;24.762;2024-02-26T09:53:29;46.65;;;25.20;;
73869;SDS011;64924;42.140;24.762;2024-02-26T09:55:58;39.83;;;24.83;;
73869;SDS011;64924;42.140;24.762;2024-02-26T09:58:25;42.42;;;25.33;;
73869;SDS011;64924;42.140;24.762;2024-02-26T10:00:55;35.95;;;22.38;;
73869;SDS011;64924;42.140;24.762;2024-02-26T10:05:53;38.45;;;22.55;;
73869;SDS011;64924;42.140;24.762;2024-02-26T10:08:20;37.40;;;20.98;;
73869;SDS011;64924;42.140;24.762;2024-02-26T10:10:48;37.70;;;21.73;;
73869;SDS011;64924;42.140;24.762;2024-02-26T10:13:14;35.28;;;21.77;;
73869;SDS011;64924;42.140;24.762;2024-02-26T10:15:40;32.35;;;20.75;;
73869;SDS011;64924;42.140;24.762;2024-02-26T10:18:06;24.73;;;17.90;;
73869;SDS011;64924;42.140;24.762;2024-02-26T10:20:31;31.25;;;18.23;;
73869;SDS011;64924;42.140;24.762;2024-02-26T10:22:58;24.05;;;18.02;;
73869;SDS011;64924;42.140;24.762;2024-02-26T10:25:27;29.17;;;17.92;;
73869;SDS011;64924;42.140;24.762;2024-02-26T10:27:53;26.52;;;17.52;;
73869;SDS011;64924;42.140;24.762;2024-02-26T10:30:19;32.67;;;17.50;;
73869;SDS011;64924;42.140;24.762;2024-02-26T10:32:50;28.30;;;16.65;;
73869;SDS011;64924;42.140;24.762;2024-02-26T10:35:16;27.60;;;16.50;;
73869;SDS011;64924;42.140;24.762;2024-02-26T10:37:46;29.90;;;16.58;;
73869;SDS011;64924;42.140;24.762;2024-02-26T10:40:12;27.33;;;16.63;;
73869;SDS011;64924;42.140;24.762;2024-02-26T10:42:39;29.20;;;17.23;;
73869;SDS011;64924;42.140;24.762;2024-02-26T10:45:06;25.05;;;16.00;;
73869;SDS011;64924;42.140;24.762;2024-02-26T10:47:34;25.17;;;16.00;;
73869;SDS011;64924;42.140;24.762;2024-02-26T10:50:02;32.05;;;17.02;;
73869;SDS011;64924;42.140;24.762;2024-02-26T10:52:33;29.80;;;17.95;;
73869;SDS011;64924;42.140;24.762;2024-02-26T10:55:02;33.33;;;17.77;;
73869;SDS011;64924;42.140;24.762;2024-02-26T10:57:34;28.08;;;15.95;;
73869;SDS011;64924;42.140;24.762;2024-02-26T11:00:04;26.40;;;17.13;;
73869;SDS011;64924;42.140;24.762;2024-02-26T11:02:31;32.10;;;17.63;;
73869;SDS011;64924;42.140;24.762;2024-02-26T11:05:00;28.02;;;16.42;;
73869;SDS011;64924;42.140;24.762;2024-02-26T11:07:28;33.20;;;18.27;;
73869;SDS011;64924;42.140;24.762;2024-02-26T11:09:55;26.02;;;15.18;;
73869;SDS011;64924;42.140;24.762;2024-02-26T11:12:22;23.75;;;13.57;;
73869;SDS011;64924;42.140;24.762;2024-02-26T11:14:49;30.33;;;14.77;;
73869;SDS011;64924;42.140;24.762;2024-02-26T11:17:20;28.13;;;15.35;;
73869;SDS011;64924;42.140;24.762;2024-02-26T11:19:48;22.73;;;15.15;;
73869;SDS011;64924;42.140;24.762;2024-02-26T11:22:15;22.23;;;13.93;;
73869;SDS011;64924;42.140;24.762;2024-02-26T11:24:40;29.38;;;15.27;;
73869;SDS011;64924;42.140;24.762;2024-02-26T11:27:07;22.77;;;14.60;;
73869;SDS011;64924;42.140;24.762;2024-02-26T11:29:39;29.55;;;17.83;;
73869;SDS011;64924;42.140;24.762;2024-02-26T11:32:09;23.52;;;15.25;;
73869;SDS011;64924;42.140;24.762;2024-02-26T11:34:35;19.92;;;15.50;;
73869;SDS011;64924;42.140;24.762;2024-02-26T11:37:11;23.95;;;15.25;;
73869;SDS011;64924;42.140;24.762;2024-02-26T11:39:37;23.83;;;16.40;;
73869;SDS011;64924;42.140;24.762;2024-02-26T11:42:08;23.92;;;16.02;;
73869;SDS011;64924;42.140;24.762;2024-02-26T11:44:34;26.80;;;14.93;;
73869;SDS011;64924;42.140;24.762;2024-02-26T11:47:19;23.92;;;16.35;;
73869;SDS011;64924;42.140;24.762;2024-02-26T11:49:45;25.42;;;15.82;;
73869;SDS011;64924;42.140;24.762;2024-02-26T11:52:12;23.48;;;16.02;;
73869;SDS011;64924;42.140;24.762;2024-02-26T11:54:54;27.20;;;16.67;;
73869;SDS011;64924;42.140;24.762;2024-02-26T11:57:22;31.65;;;17.05;;
73869;SDS011;64924;42.140;24.762;2024-02-26T11:59:48;26.88;;;17.48;;
73869;SDS011;64924;42.140;24.762;2024-02-26T12:05:37;33.95;;;18.35;;
73869;SDS011;64924;42.140;24.762;2024-02-26T12:08:03;26.00;;;17.52;;
73869;SDS011;64924;42.140;24.762;2024-02-26T12:15:36;24.73;;;16.73;;
73869;SDS011;64924;42.140;24.762;2024-02-26T12:18:03;28.67;;;16.83;;
73869;SDS011;64924;42.140;24.762;2024-02-26T12:20:30;26.13;;;17.88;;
73869;SDS011;64924;42.140;24.762;2024-02-26T12:22:56;30.38;;;16.73;;
73869;SDS011;64924;42.140;24.762;2024-02-26T12:25:23;27.42;;;17.25;;
73869;SDS011;64924;42.140;24.762;2024-02-26T12:27:51;28.07;;;16.80;;
73869;SDS011;64924;42.140;24.762;2024-02-26T12:30:16;24.65;;;15.93;;
73869;SDS011;64924;42.140;24.762;2024-02-26T12:32:43;22.63;;;16.50;;
73869;SDS011;64924;42.140;24.762;2024-02-26T12:35:09;28.55;;;15.27;;
73869;SDS011;64924;42.140;24.762;2024-02-26T12:37:34;24.48;;;15.50;;
73869;SDS011;64924;42.140;24.762;2024-02-26T12:40:03;20.73;;;14.32;;
73869;SDS011;64924;42.140;24.762;2024-02-26T12:42:31;22.45;;;14.50;;
73869;SDS011;64924;42.140;24.762;2024-02-26T12:45:04;18.00;;;13.70;;
73869;SDS011;64924;42.140;24.762;2024-02-26T12:47:35;23.17;;;14.13;;
73869;SDS011;64924;42.140;24.762;2024-02-26T12:50:02;19.00;;;13.35;;
73869;SDS011;64924;42.140;24.762;2024-02-26T12:52:29;20.33;;;13.25;;
73869;SDS011;64924;42.140;24.762;2024-02-26T12:54:58;15.82;;;12.43;;
73869;SDS011;64924;42.140;24.762;2024-02-26T12:57:25;20.98;;;13.82;;
73869;SDS011;64924;42.140;24.762;2024-02-26T12:59:52;23.65;;;15.02;;
73869;SDS011;64924;42.140;24.762;2024-02-26T13:02:18;22.40;;;14.32;;
73869;SDS011;64924;42.140;24.762;2024-02-26T13:04:43;22.42;;;14.30;;
73869;SDS011;64924;42.140;24.762;2024-02-26T13:07:09;23.60;;;14.85;;
73869;SDS011;64924;42.140;24.762;2024-02-26T13:09:35;24.05;;;14.68;;
73869;SDS011;64924;42.140;24.762;2024-02-26T13:12:03;24.98;;;14.38;;
73869;SDS011;64924;42.140;24.762;2024-02-26T13:14:30;18.80;;;12.98;;
73869;SDS011;64924;42.140;24.762;2024-02-26T13:16:57;17.45;;;12.20;;
73869;SDS011;64924;42.140;24.762;2024-02-26T13:19:23;23.05;;;13.07;;
73869;SDS011;64924;42.140;24.762;2024-02-26T13:21:49;22.38;;;12.60;;
73869;SDS011;64924;42.140;24.762;2024-02-26T13:24:15;22.42;;;12.25;;
73869;SDS011;64924;42.140;24.762;2024-02-26T13:26:41;20.73;;;13.15;;
73869;SDS011;64924;42.140;24.762;2024-02-26T13:29:07;21.40;;;13.38;;
73869;SDS011;64924;42.140;24.762;2024-02-26T13:31:38;19.73;;;12.65;;
73869;SDS011;64924;42.140;24.762;2024-02-26T13:34:05;15.23;;;11.65;;
73869;SDS011;64924;42.140;24.762;2024-02-26T13:36:30;19.23;;;11.88;;
73869;SDS011;64924;42.140;24.762;2024-02-26T13:38:56;18.48;;;12.07;;
73869;SDS011;64924;42.140;24.762;2024-02-26T13:41:22;20.30;;;13.23;;
73869;SDS011;64924;42.140;24.762;2024-02-26T13:43:47;23.40;;;14.88;;
73869;SDS011;64924;42.140;24.762;2024-02-26T13:46:14;20.98;;;13.75;;
73869;SDS011;64924;42.140;24.762;2024-02-26T13:48:43;21.20;;;12.85;;
73869;SDS011;64924;42.140;24.762;2024-02-26T13:51:09;27.25;;;13.68;;
73869;SDS011;64924;42.140;24.762;2024-02-26T13:53:35;27.00;;;14.45;;
73869;SDS011;64924;42.140;24.762;2024-02-26T13:56:00;22.58;;;14.93;;
73869;SDS011;64924;42.140;24.762;2024-02-26T13:58:29;31.85;;;15.77;;
73869;SDS011;64924;42.140;24.762;2024-02-26T14:00:54;22.27;;;14.07;;
73869;SDS011;64924;42.140;24.762;2024-02-26T14:03:20;23.00;;;14.15;;
73869;SDS011;64924;42.140;24.762;2024-02-26T14:05:46;20.60;;;14.27;;
73869;SDS011;64924;42.140;24.762;2024-02-26T14:08:12;26.58;;;14.32;;
73869;SDS011;64924;42.140;24.762;2024-02-26T14:10:38;19.85;;;14.00;;
73869;SDS011;64924;42.140;24.762;2024-02-26T14:13:03;23.52;;;12.60;;
73869;SDS011;64924;42.140;24.762;2024-02-26T14:15:29;26.75;;;13.60;;
73869;SDS011;64924;42.140;24.762;2024-02-26T14:17:55;19.70;;;13.07;;